Time;durP1;ratioP1;P1;durP2;ratioP2;P2;SDS_P1;SDS_P2;PMS_P1;PMS_P2;Temp;Humidity;BMP_temperature;BMP_pressure;BME280_temperature;BME280_humidity;BME280_pressure;Samples;Min_cycle;Max_cycle;Signal;HPM_P1;HPM_P2
2023/09/21 00:00:14;;;;;;;1999.90;999.90;;;19.00;99.90;;;;;;5085747;28;20086;-66
2023/09/21 00:02:44;;;;;;;1999.90;999.90;;;19.00;99.90;;;;;;5083130;28;20028;-67
2023/09/21 00:05:10;;;;;;;1999.90;999.90;;;19.00;99.90;;;;;;5088379;28;20021;-67
2023/09/21 00:07:36;;;;;;;1999.90;999.90;;;19.00;99.90;;;;;;5083242;28;20020;-67
2023/09/21 00:10:06;;;;;;;1999.90;999.90;;;19.00;99.90;;;;;;5082903;28;20369;-67
2023/09/21 00:12:34;;;;;;;1999.90;999.90;;;19.00;99.90;;;;;;5092976;28;20031;-67
2023/09/21 00:15:04;;;;;;;1999.90;999.90;;;18.90;99.90;;;;;;5090060;28;20433;-67
2023/09/21 00:17:34;;;;;;;1999.90;999.90;;;19.00;99.90;;;;;;5092435;28;20028;-67
2023/09/21 00:20:11;;;;;;;1999.90;999.90;;;18.90;99.90;;;;;;5091780;28;20411;-67
2023/09/21 00:22:37;;;;;;;1999.90;999.90;;;18.90;99.90;;;;;;5092255;28;20059;-75
2023/09/21 00:25:04;;;;;;;;;;;18.90;99.90;;;;;;5095787;28;20028;-67
2023/09/21 00:27:30;;;;;;;1999.90;999.90;;;19.00;99.90;;;;;;5084975;28;19908;-68
2023/09/21 00:29:56;;;;;;;1999.90;999.90;;;18.90;99.90;;;;;;5094115;28;20105;-68
2023/09/21 00:32:21;;;;;;;1999.90;999.90;;;18.90;99.90;;;;;;5086550;28;20043;-67
2023/09/21 00:34:50;;;;;;;1999.90;999.90;;;18.90;99.90;;;;;;5089604;28;20032;-67
2023/09/21 00:37:17;;;;;;;1999.90;999.90;;;18.90;99.90;;;;;;5092737;28;20029;-67
2023/09/21 00:39:43;;;;;;;1999.90;999.90;;;18.90;99.90;;;;;;5093974;28;20040;-77
2023/09/21 00:42:09;;;;;;;1999.90;999.90;;;18.90;99.90;;;;;;5080743;28;20445;-67
2023/09/21 00:44:35;;;;;;;1999.90;999.90;;;18.90;99.90;;;;;;5083135;28;20035;-67
2023/09/21 00:47:02;;;;;;;1999.90;999.90;;;18.80;99.90;;;;;;5088308;28;20028;-67
2023/09/21 00:49:29;;;;;;;1999.90;999.90;;;18.80;99.90;;;;;;5085001;28;20132;-67
2023/09/21 00:51:57;;;;;;;1999.90;999.90;;;18.90;99.90;;;;;;5087266;28;20036;-75
2023/09/21 00:54:24;;;;;;;1999.90;999.90;;;18.90;99.90;;;;;;5095404;28;20024;-67
2023/09/21 00:56:52;;;;;;;1999.90;999.90;;;18.80;99.90;;;;;;5095941;28;20024;-79
2023/09/21 00:59:19;;;;;;;1999.90;999.90;;;18.80;99.90;;;;;;5091908;28;20453;-67
2023/09/21 01:01:46;;;;;;;1999.90;999.90;;;18.80;99.90;;;;;;5094705;28;20028;-67
2023/09/21 01:04:13;;;;;;;1999.90;999.90;;;18.80;99.90;;;;;;5091402;28;20069;-67
2023/09/21 01:06:42;;;;;;;;;;;18.80;99.90;;;;;;5086530;28;20016;-68
2023/09/21 01:09:13;;;;;;;1999.90;999.90;;;18.80;99.90;;;;;;5090975;28;20022;-67
2023/09/21 01:11:39;;;;;;;1999.90;999.90;;;18.80;99.90;;;;;;5086079;28;20077;-66
2023/09/21 01:14:05;;;;;;;1999.90;999.90;;;18.70;99.90;;;;;;5086612;28;20032;-67
2023/09/21 01:16:31;;;;;;;1999.90;999.90;;;18.70;99.90;;;;;;5091348;28;20031;-67
2023/09/21 01:18:57;;;;;;;1999.90;999.90;;;18.70;99.90;;;;;;5092193;28;20032;-67
2023/09/21 01:21:34;;;;;;;1999.90;999.90;;;18.70;99.90;;;;;;5088159;28;20024;-67
2023/09/21 01:24:00;;;;;;;1999.90;999.90;;;18.70;99.90;;;;;;5088306;28;20035;-67
2023/09/21 01:26:26;;;;;;;1999.90;999.90;;;18.70;99.90;;;;;;5090425;28;20032;-67
2023/09/21 01:28:56;;;;;;;1999.90;999.90;;;18.70;99.90;;;;;;5095139;28;20335;-67
2023/09/21 01:31:22;;;;;;;1999.90;999.90;;;18.70;99.90;;;;;;5094277;28;20027;-67
2023/09/21 01:33:48;;;;;;;1999.90;999.90;;;18.80;99.90;;;;;;5091414;28;20024;-67
2023/09/21 01:36:16;;;;;;;1999.90;999.90;;;18.80;99.90;;;;;;5100566;28;20031;-67
2023/09/21 01:38:46;;;;;;;1999.90;999.90;;;18.80;99.90;;;;;;5093359;28;20047;-67
2023/09/21 01:41:13;;;;;;;1999.90;999.90;;;18.80;99.90;;;;;;5088599;28;20417;-67
2023/09/21 01:43:39;;;;;;;1999.90;999.90;;;18.80;99.90;;;;;;5095451;28;20016;-66
2023/09/21 01:46:05;;;;;;;1999.90;999.90;;;18.80;99.90;;;;;;5095728;28;20409;-77
2023/09/21 01:48:32;;;;;;;1999.90;999.90;;;18.80;99.90;;;;;;5094551;28;20434;-67
2023/09/21 01:50:59;;;;;;;1999.90;999.90;;;18.80;99.90;;;;;;5085353;28;20032;-66
2023/09/21 01:53:25;;;;;;;1999.90;999.90;;;18.80;99.90;;;;;;5095514;28;20073;-67
2023/09/21 01:55:51;;;;;;;1999.90;999.90;;;18.80;99.90;;;;;;5095711;28;20376;-68
2023/09/21 01:58:19;;;;;;;1999.90;999.90;;;18.80;99.90;;;;;;5093157;28;20479;-67
2023/09/21 02:00:47;;;;;;;1999.90;999.90;;;18.80;99.90;;;;;;5093954;28;20020;-67
2023/09/21 02:03:17;;;;;;;1999.90;999.90;;;18.80;99.90;;;;;;5087486;28;20038;-68
2023/09/21 02:05:43;;;;;;;1999.90;999.90;;;18.80;99.90;;;;;;5085786;28;20032;-66
2023/09/21 02:08:11;;;;;;;1999.90;999.90;;;18.70;99.90;;;;;;5084176;28;20030;-67
2023/09/21 02:10:41;;;;;;;1999.90;999.90;;;18.70;99.90;;;;;;5079795;28;20373;-68
2023/09/21 02:13:08;;;;;;;1999.90;999.90;;;18.70;99.90;;;;;;5095214;28;20028;-66
2023/09/21 02:15:39;;;;;;;1999.90;999.90;;;18.70;99.90;;;;;;5084293;28;20028;-67
2023/09/21 02:18:09;;;;;;;1999.90;999.90;;;18.70;99.90;;;;;;5075222;28;20119;-78
2023/09/21 02:20:44;;;;;;;1999.90;999.90;;;18.70;99.90;;;;;;5080794;28;20059;-67
2023/09/21 02:23:11;;;;;;;1999.90;999.90;;;18.80;99.90;;;;;;5087024;28;20423;-67
2023/09/21 02:25:40;;;;;;;1999.90;999.90;;;18.80;99.90;;;;;;5086088;28;20119;-67
2023/09/21 02:28:15;;;;;;;1999.90;999.90;;;18.80;99.90;;;;;;5082749;28;20415;-68
2023/09/21 02:30:46;;;;;;;1999.90;999.90;;;18.90;99.90;;;;;;5076039;28;20058;-67
2023/09/21 02:33:12;;;;;;;1999.90;999.90;;;18.90;99.90;;;;;;5075075;28;20028;-80
2023/09/21 02:35:41;;;;;;;1999.90;999.90;;;19.00;99.90;;;;;;5094034;28;20013;-67
2023/09/21 02:38:09;;;;;;;1999.90;999.90;;;19.00;99.90;;;;;;5088059;28;20028;-66
2023/09/21 02:40:35;;;;;;;1999.90;999.90;;;19.00;99.90;;;;;;5094427;28;20024;-67
2023/09/21 02:43:01;;;;;;;1999.90;999.90;;;19.00;99.90;;;;;;5084521;28;20069;-67
2023/09/21 02:45:29;;;;;;;1999.90;999.90;;;19.00;99.90;;;;;;5076024;28;20024;-67
2023/09/21 02:48:00;;;;;;;1999.90;999.90;;;19.10;99.90;;;;;;5090101;28;20067;-67
2023/09/21 02:50:27;;;;;;;1999.90;999.90;;;19.00;99.90;;;;;;5079306;28;20105;-68
2023/09/21 02:52:57;;;;;;;1999.90;999.90;;;19.10;99.90;;;;;;5085516;28;20035;-67
2023/09/21 02:55:24;;;;;;;1999.90;999.90;;;19.00;99.90;;;;;;5079537;28;20036;-67
2023/09/21 02:58:09;;;;;;;1999.90;999.90;;;19.00;99.90;;;;;;5078583;28;20070;-68
2023/09/21 03:00:39;;;;;;;1999.90;999.90;;;19.00;99.90;;;;;;5076945;28;20023;-67
2023/09/21 03:03:06;;;;;;;1999.90;999.90;;;19.00;99.90;;;;;;5083430;28;20012;-77
2023/09/21 03:05:33;;;;;;;1999.90;999.90;;;19.00;99.90;;;;;;5085308;28;20027;-67
2023/09/21 03:08:09;;;;;;;1999.90;999.90;;;19.00;99.90;;;;;;5091187;28;20028;-67
2023/09/21 03:10:38;;;;;;;1999.90;999.90;;;19.10;99.90;;;;;;5101391;28;20031;-78
2023/09/21 03:13:05;;;;;;;1999.90;999.90;;;19.00;99.90;;;;;;5102802;28;20031;-67
2023/09/21 03:15:32;;;;;;;1999.90;999.90;;;19.00;99.90;;;;;;5097480;28;20019;-67
2023/09/21 03:17:58;;;;;;;1999.90;999.90;;;19.00;99.90;;;;;;5084022;28;20032;-78
2023/09/21 03:20:37;;;;;;;1999.90;999.90;;;18.90;99.90;;;;;;5087942;28;20316;-67
2023/09/21 03:23:11;;;;;;;1999.90;999.90;;;19.00;99.90;;;;;;5081996;28;20012;-67
2023/09/21 03:25:42;;;;;;;1999.90;999.90;;;18.90;99.90;;;;;;5098563;28;20020;-68
2023/09/21 03:28:15;;;;;;;1999.90;999.90;;;18.90;99.90;;;;;;5091266;28;20403;-67
2023/09/21 03:30:48;;;;;;;1999.90;999.90;;;18.90;99.90;;;;;;5088434;28;20150;-67
2023/09/21 03:33:16;;;;;;;1999.90;999.90;;;18.80;99.90;;;;;;5093454;28;20051;-67
2023/09/21 03:35:43;;;;;;;1999.90;999.90;;;18.90;99.90;;;;;;5087553;28;20027;-67
2023/09/21 03:38:12;;;;;;;1999.90;999.90;;;18.80;99.90;;;;;;5082625;28;20206;-67
2023/09/21 03:40:38;;;;;;;1999.90;999.90;;;18.80;99.90;;;;;;5082016;28;20016;-67
2023/09/21 03:43:06;;;;;;;1999.90;999.90;;;18.80;99.90;;;;;;5086497;28;20016;-67
2023/09/21 03:45:32;;;;;;;1999.90;999.90;;;18.80;99.90;;;;;;5096478;28;20120;-67
2023/09/21 03:48:03;;;;;;;1999.90;999.90;;;18.80;99.90;;;;;;5092486;28;20047;-68
2023/09/21 03:50:29;;;;;;;1999.90;999.90;;;18.90;99.90;;;;;;5096677;28;20024;-67
2023/09/21 03:52:55;;;;;;;1999.90;999.90;;;18.80;99.90;;;;;;5087587;28;20039;-76
2023/09/21 03:55:21;;;;;;;1999.90;999.90;;;18.90;99.90;;;;;;5079068;28;20028;-79
2023/09/21 03:57:48;;;;;;;1999.90;999.90;;;18.90;99.90;;;;;;5086561;28;20499;-67
2023/09/21 04:00:29;;;;;;;1999.90;999.90;;;18.80;99.90;;;;;;5092180;28;20035;-67
2023/09/21 04:02:59;;;;;;;1999.90;999.90;;;18.70;99.90;;;;;;5083464;28;20038;-74
2023/09/21 04:05:31;;;;;;;1999.90;999.90;;;18.70;99.90;;;;;;5088215;28;20032;-67
2023/09/21 04:07:57;;;;;;;1999.90;999.90;;;18.60;99.90;;;;;;5085584;28;20028;-67
2023/09/21 04:10:23;;;;;;;1999.90;999.90;;;18.60;99.90;;;;;;5089769;28;20031;-67
2023/09/21 04:12:55;;;;;;;1999.90;999.90;;;18.50;99.90;;;;;;5081326;28;20029;-67
2023/09/21 04:15:30;;;;;;;1999.90;999.90;;;18.50;99.90;;;;;;5094407;28;20036;-67
2023/09/21 04:18:01;;;;;;;1999.90;999.90;;;18.40;99.90;;;;;;5080000;28;20064;-68
2023/09/21 04:20:31;;;;;;;1999.90;999.90;;;18.40;99.90;;;;;;5085078;28;20039;-67
2023/09/21 04:22:57;;;;;;;1999.90;999.90;;;18.40;99.90;;;;;;5081290;28;20119;-68
2023/09/21 04:25:22;;;;;;;1999.90;999.90;;;18.40;99.90;;;;;;5093700;28;20104;-68
2023/09/21 04:27:49;;;;;;;1999.90;999.90;;;18.40;99.90;;;;;;5090815;28;20055;-67
2023/09/21 04:30:18;;;;;;;1999.90;999.90;;;18.40;99.90;;;;;;5080500;28;20098;-67
2023/09/21 04:32:45;;;;;;;1999.90;999.90;;;18.40;99.90;;;;;;5094176;28;20016;-77
2023/09/21 04:35:12;;;;;;;1999.90;999.90;;;18.40;99.90;;;;;;5095414;28;20058;-67
2023/09/21 04:37:38;;;;;;;1999.90;999.90;;;18.40;99.90;;;;;;5087555;28;20020;-67
2023/09/21 04:40:11;;;;;;;1999.90;999.90;;;18.40;99.90;;;;;;5090370;28;20166;-67
2023/09/21 04:42:38;;;;;;;1999.90;999.90;;;18.30;99.90;;;;;;5092853;28;20028;-67
2023/09/21 04:45:09;;;;;;;1999.90;999.90;;;18.30;99.90;;;;;;5092353;28;20028;-67
2023/09/21 04:47:40;;;;;;;1999.90;999.90;;;18.30;99.90;;;;;;5096401;28;20032;-67
2023/09/21 04:50:09;;;;;;;1999.90;999.90;;;18.20;99.90;;;;;;5093857;28;20107;-67
2023/09/21 04:52:34;;;;;;;1999.90;999.90;;;18.10;99.90;;;;;;5088212;28;20083;-66
2023/09/21 04:55:04;;;;;;;1999.90;999.90;;;18.10;99.90;;;;;;5093403;28;20039;-67
2023/09/21 04:57:30;;;;;;;1999.90;999.90;;;18.10;99.90;;;;;;5083740;28;20027;-67
2023/09/21 04:59:59;;;;;;;1999.90;999.90;;;18.00;99.90;;;;;;5095879;28;20025;-67
2023/09/21 05:02:26;;;;;;;1999.90;999.90;;;18.00;99.90;;;;;;5073607;28;20024;-67
2023/09/21 05:04:52;;;;;;;1999.90;999.90;;;18.00;99.90;;;;;;5080294;28;20051;-79
2023/09/21 05:07:19;;;;;;;1999.90;999.90;;;18.00;99.90;;;;;;5088245;28;20429;-67
2023/09/21 05:09:48;;;;;;;1999.90;999.90;;;17.90;99.90;;;;;;5077517;28;20108;-66
2023/09/21 05:12:14;;;;;;;1999.90;999.90;;;17.90;99.90;;;;;;5087538;28;20028;-67
2023/09/21 05:14:40;;;;;;;1999.90;999.90;;;17.80;99.90;;;;;;5085761;28;20382;-67
2023/09/21 05:17:06;;;;;;;1999.90;999.90;;;17.80;99.90;;;;;;5075619;28;20025;-66
2023/09/21 05:19:33;;;;;;;1999.90;999.90;;;17.80;99.90;;;;;;5080313;28;20055;-66
2023/09/21 05:21:59;;;;;;;1999.90;999.90;;;17.80;99.90;;;;;;5087334;28;20036;-68
2023/09/21 05:24:26;;;;;;;1999.90;999.90;;;17.70;99.90;;;;;;5076485;28;20693;-82
2023/09/21 05:26:52;;;;;;;1999.90;999.90;;;17.70;99.90;;;;;;5076089;28;20063;-67
2023/09/21 05:29:19;;;;;;;;;;;17.70;99.90;;;;;;5075918;28;20354;-67
2023/09/21 05:31:45;;;;;;;1999.90;999.90;;;17.60;99.90;;;;;;5080075;28;19916;-67
2023/09/21 05:34:11;;;;;;;1999.90;999.90;;;17.50;99.90;;;;;;5086018;28;20027;-68
2023/09/21 05:36:37;;;;;;;1999.90;999.90;;;17.50;99.90;;;;;;5080032;28;20042;-68
2023/09/21 05:39:04;;;;;;;1999.90;999.90;;;17.40;99.90;;;;;;5075709;28;20032;-86
2023/09/21 05:41:31;;;;;;;1999.90;999.90;;;17.40;99.90;;;;;;5084127;28;20028;-68
2023/09/21 05:43:57;;;;;;;1999.90;999.90;;;17.30;99.90;;;;;;5083282;28;20349;-68
2023/09/21 05:46:23;;;;;;;1999.90;999.90;;;17.20;99.90;;;;;;5084671;28;20080;-68
2023/09/21 05:48:49;;;;;;;1999.90;999.90;;;17.20;99.90;;;;;;5087075;28;20122;-67
2023/09/21 05:51:16;;;;;;;1999.90;999.90;;;17.20;99.90;;;;;;5091826;28;20119;-67
2023/09/21 05:53:42;;;;;;;1999.90;999.90;;;17.10;99.90;;;;;;5088608;28;20486;-68
2023/09/21 05:56:09;;;;;;;1999.90;999.90;;;17.10;99.90;;;;;;5084101;28;20112;-68
2023/09/21 05:58:36;;;;;;;1999.90;999.90;;;17.00;99.90;;;;;;5089649;28;20081;-68
2023/09/21 06:01:02;;;;;;;1999.90;999.90;;;17.00;99.90;;;;;;5092134;28;20151;-67
2023/09/21 06:03:28;;;;;;;1999.90;999.90;;;17.00;99.90;;;;;;5093077;28;20020;-67
2023/09/21 06:05:54;;;;;;;1999.90;999.90;;;16.90;99.90;;;;;;5086308;28;20020;-68
2023/09/21 06:08:21;;;;;;;1999.90;999.90;;;16.90;99.90;;;;;;5083819;28;20031;-69
2023/09/21 06:10:47;;;;;;;1999.90;999.90;;;16.80;99.90;;;;;;5085962;28;20111;-69
2023/09/21 06:13:13;;;;;;;1999.90;999.90;;;16.80;99.90;;;;;;5088754;28;20094;-89
2023/09/21 06:15:48;;;;;;;1999.90;999.90;;;16.60;99.90;;;;;;5086105;28;20299;-69
2023/09/21 06:18:14;;;;;;;1999.90;999.90;;;16.40;99.90;;;;;;5088597;28;20024;-68
2023/09/21 06:20:43;;;;;;;1999.90;999.90;;;16.10;99.90;;;;;;5092069;28;20269;-69
2023/09/21 06:23:09;;;;;;;1999.90;999.90;;;16.00;99.90;;;;;;5075926;28;20028;-68
2023/09/21 06:25:36;;;;;;;1999.90;999.90;;;15.80;99.90;;;;;;5085098;28;20316;-69
2023/09/21 06:28:03;;;;;;;1999.90;999.90;;;15.70;99.90;;;;;;5077836;28;20090;-68
2023/09/21 06:30:29;;;;;;;;;;;15.70;99.90;;;;;;5075441;28;20023;-68
2023/09/21 06:32:55;;;;;;;1999.90;999.90;;;15.60;99.90;;;;;;5076013;28;20230;-69
2023/09/21 06:35:23;;;;;;;1999.90;999.90;;;15.60;99.90;;;;;;5082848;28;20065;-68
2023/09/21 06:37:56;;;;;;;1999.90;999.90;;;15.60;99.90;;;;;;5085639;28;20055;-69
2023/09/21 06:40:25;;;;;;;1999.90;999.90;;;15.50;99.90;;;;;;5080669;28;20036;-68
2023/09/21 06:42:51;;;;;;;1999.90;999.90;;;15.50;99.90;;;;;;5089349;28;20416;-68
2023/09/21 06:45:18;;;;;;;1999.90;999.90;;;15.40;99.90;;;;;;5086697;28;20024;-69
2023/09/21 06:47:47;;;;;;;1999.90;999.90;;;15.40;99.90;;;;;;5081764;28;20048;-68
2023/09/21 06:50:14;;;;;;;1999.90;999.90;;;15.50;99.90;;;;;;5091009;28;20077;-68
2023/09/21 06:52:40;;;;;;;1999.90;999.90;;;15.50;99.90;;;;;;5091476;28;20028;-68
2023/09/21 06:55:07;;;;;;;1999.90;999.90;;;15.50;99.90;;;;;;5092016;28;20059;-68
2023/09/21 06:57:34;;;;;;;1999.90;999.90;;;15.50;99.90;;;;;;5088858;28;20028;-68
2023/09/21 07:00:09;;;;;;;1999.90;999.90;;;15.50;99.90;;;;;;5089622;28;20024;-68
2023/09/21 07:02:36;;;;;;;1999.90;999.90;;;15.50;99.90;;;;;;5084893;28;20407;-68
2023/09/21 07:05:02;;;;;;;1999.90;999.90;;;15.50;99.90;;;;;;5087526;28;20326;-68
2023/09/21 07:07:30;;;;;;;1999.90;999.90;;;15.50;99.90;;;;;;5087497;28;20024;-68
2023/09/21 07:09:56;;;;;;;1999.90;999.90;;;15.60;99.90;;;;;;5082807;28;20357;-68
2023/09/21 07:12:22;;;;;;;1999.90;999.90;;;15.60;99.90;;;;;;5086264;28;20027;-68
2023/09/21 07:14:49;;;;;;;1999.90;999.90;;;15.60;99.90;;;;;;5088990;28;20261;-69
2023/09/21 07:17:15;;;;;;;;;;;15.70;99.90;;;;;;5083329;28;20037;-94
2023/09/21 07:19:42;;;;;;;1999.90;999.90;;;15.70;99.90;;;;;;5102900;28;19915;-70
2023/09/21 07:22:08;;;;;;;1999.90;999.90;;;15.70;99.90;;;;;;5096129;28;20326;-69
2023/09/21 07:24:34;;;;;;;1999.90;999.90;;;15.70;99.90;;;;;;5090275;28;20023;-69
2023/09/21 07:27:00;;;;;;;1999.90;999.90;;;15.70;99.90;;;;;;5090493;28;20020;-70
2023/09/21 07:29:27;;;;;;;1999.90;999.90;;;15.60;99.90;;;;;;5097782;28;20081;-69
2023/09/21 07:31:53;;;;;;;;;;;15.50;99.90;;;;;;5075027;28;20449;-68
2023/09/21 07:34:19;;;;;;;1999.90;999.90;;;15.50;99.90;;;;;;5089311;28;19904;-68
2023/09/21 07:36:48;;;;;;;;;;;15.50;99.90;;;;;;5083700;28;20028;-68
2023/09/21 07:39:16;;;;;;;1999.90;999.90;;;15.50;99.90;;;;;;5086414;28;19912;-68
2023/09/21 07:41:42;;;;;;;1999.90;999.90;;;15.60;99.90;;;;;;5092391;28;20031;-80
2023/09/21 07:44:11;;;;;;;1999.90;999.90;;;15.60;99.90;;;;;;5092453;28;20082;-68
2023/09/21 07:46:37;;;;;;;1999.90;999.90;;;15.70;99.90;;;;;;5079179;28;20052;-68
2023/09/21 07:49:04;;;;;;;1999.90;999.90;;;15.70;99.90;;;;;;5081649;28;20368;-68
2023/09/21 07:51:31;;;;;;;1999.90;999.90;;;15.70;99.90;;;;;;5082876;28;20089;-69
2023/09/21 07:53:57;;;;;;;1999.90;999.90;;;15.70;99.90;;;;;;5078980;28;20031;-68
2023/09/21 07:56:23;;;;;;;1999.90;999.90;;;15.70;99.90;;;;;;5078585;28;20369;-69
2023/09/21 07:58:49;;;;;;;1999.90;999.90;;;15.70;99.90;;;;;;5075091;28;20115;-69
2023/09/21 08:01:14;;;;;;;1999.90;999.90;;;15.60;99.90;;;;;;5085298;28;20103;-69
2023/09/21 08:03:40;;;;;;;1999.90;999.90;;;15.60;99.90;;;;;;5080477;28;20021;-69
2023/09/21 08:06:07;;;;;;;1999.90;999.90;;;15.60;99.90;;;;;;5077297;28;20545;-68
2023/09/21 08:08:32;;;;;;;1999.90;999.90;;;15.70;99.90;;;;;;5077138;28;20296;-69
2023/09/21 08:10:58;;;;;;;1999.90;999.90;;;15.60;99.90;;;;;;5077049;28;20024;-68
2023/09/21 08:13:26;;;;;;;1999.90;999.90;;;15.60;99.90;;;;;;5079754;28;20361;-68
2023/09/21 08:15:54;;;;;;;1999.90;999.90;;;15.60;99.90;;;;;;5076897;28;20035;-81
2023/09/21 08:18:20;;;;;;;1999.90;999.90;;;15.60;99.90;;;;;;5080274;28;20032;-69
2023/09/21 08:20:46;;;;;;;1999.90;999.90;;;15.40;99.90;;;;;;5077203;28;20028;-68
2023/09/21 08:23:11;;;;;;;1999.90;999.90;;;15.40;99.90;;;;;;5080144;28;20327;-68
2023/09/21 08:25:38;;;;;;;1999.90;999.90;;;15.40;99.90;;;;;;5076004;28;20031;-70
2023/09/21 08:28:04;;;;;;;1999.90;999.90;;;15.40;99.90;;;;;;5085382;28;20024;-69
2023/09/21 08:30:33;;;;;;;1999.90;999.90;;;15.40;99.90;;;;;;5080681;28;20024;-69
2023/09/21 08:32:59;;;;;;;1999.90;999.90;;;15.40;99.90;;;;;;5079832;28;20450;-69
2023/09/21 08:35:26;;;;;;;1999.90;999.90;;;15.40;99.90;;;;;;5102052;28;20089;-69
2023/09/21 08:37:52;;;;;;;1999.90;999.90;;;15.50;99.90;;;;;;5081520;28;20034;-69
2023/09/21 08:40:22;;;;;;;1999.90;999.90;;;15.60;99.90;;;;;;5083143;28;20016;-68
2023/09/21 08:42:52;;;;;;;1999.90;999.90;;;15.60;99.90;;;;;;5076582;28;20052;-69
2023/09/21 08:45:21;;;;;;;1999.90;999.90;;;15.60;99.90;;;;;;5080549;28;20013;-69
2023/09/21 08:47:48;;;;;;;1999.90;999.90;;;15.60;99.90;;;;;;5082037;28;20079;-69
2023/09/21 08:50:13;;;;;;;1999.90;999.90;;;15.60;99.90;;;;;;5077253;28;20047;-69
2023/09/21 08:52:48;;;;;;;1999.90;999.90;;;15.70;99.90;;;;;;5076641;28;20408;-69
2023/09/21 08:55:14;;;;;;;1999.90;999.90;;;15.70;99.90;;;;;;5079001;28;20273;-69
2023/09/21 08:57:40;;;;;;;1999.90;999.90;;;15.80;99.90;;;;;;5076504;28;20078;-69
2023/09/21 09:00:09;;;;;;;1999.90;999.90;;;15.90;99.90;;;;;;5076192;28;20063;-69
2023/09/21 09:02:35;;;;;;;1999.90;999.90;;;15.90;99.90;;;;;;5076449;28;20020;-69
2023/09/21 09:05:08;;;;;;;1999.90;999.90;;;15.80;99.90;;;;;;5075009;28;20028;-69
2023/09/21 09:07:40;;;;;;;1999.90;999.90;;;15.80;99.90;;;;;;5075968;28;20060;-69
2023/09/21 09:10:12;;;;;;;1999.90;999.90;;;15.70;99.90;;;;;;5075653;28;20036;-69
2023/09/21 09:12:39;;;;;;;1999.90;999.90;;;15.70;99.90;;;;;;5075669;28;20066;-69
2023/09/21 09:15:08;;;;;;;1999.90;999.90;;;15.70;99.90;;;;;;5084417;28;20032;-69
2023/09/21 09:17:35;;;;;;;1999.90;999.90;;;15.60;99.90;;;;;;5075350;28;20025;-69
2023/09/21 09:20:05;;;;;;;;;;;15.60;99.90;;;;;;5076433;28;20029;-70
2023/09/21 09:22:34;;;;;;;1999.90;999.90;;;15.60;99.90;;;;;;5089587;28;20223;-69
2023/09/21 09:25:07;;;;;;;1999.90;999.90;;;15.60;99.90;;;;;;5083218;28;20411;-69
2023/09/21 09:27:34;;;;;;;1999.90;999.90;;;15.60;99.90;;;;;;5075259;28;20021;-69
2023/09/21 09:30:00;;;;;;;1999.90;999.90;;;15.60;99.90;;;;;;5081140;28;20032;-69
2023/09/21 09:32:35;;;;;;;1999.90;999.90;;;15.50;99.90;;;;;;5082000;28;20028;-69
2023/09/21 09:35:07;;;;;;;1999.90;999.90;;;15.60;99.90;;;;;;5082093;28;20055;-70
2023/09/21 09:37:37;;;;;;;1999.90;999.90;;;15.40;99.90;;;;;;5092976;28;20031;-70
2023/09/21 09:40:23;;;;;;;1999.90;999.90;;;15.40;99.90;;;;;;5095290;28;20055;-69
2023/09/21 09:42:53;;;;;;;1999.90;999.90;;;15.40;99.90;;;;;;5093578;28;20485;-69
2023/09/21 09:45:24;;;;;;;1999.90;999.90;;;15.50;99.90;;;;;;5094215;28;20327;-69
2023/09/21 09:47:56;;;;;;;1999.90;999.90;;;15.40;99.90;;;;;;5086521;28;20093;-70
2023/09/21 09:50:24;;;;;;;1999.90;999.90;;;15.50;99.90;;;;;;5087375;28;20097;-69
2023/09/21 09:53:13;;;;;;;1999.90;999.90;;;15.40;99.90;;;;;;5091145;28;20108;-70
2023/09/21 09:55:43;;;;;;;1999.90;999.90;;;15.40;99.90;;;;;;5087725;28;20085;-71
2023/09/21 09:58:10;;;;;;;1999.90;999.90;;;15.40;99.90;;;;;;5077972;28;20028;-71
2023/09/21 10:00:35;;;;;;;;;;;15.40;99.90;;;;;;5075843;28;20089;-81
2023/09/21 10:03:03;;;;;;;1999.90;999.90;;;15.40;99.90;;;;;;5093425;28;19987;-80
2023/09/21 10:05:30;;;;;;;1999.90;999.90;;;15.30;99.90;;;;;;5092199;28;20108;-70
2023/09/21 10:08:00;;;;;;;;;;;15.30;99.90;;;;;;5079780;28;20024;-81
2023/09/21 10:10:30;;;;;;;1999.90;999.90;;;15.30;99.90;;;;;;5092724;28;19912;-69
2023/09/21 10:12:57;;;;;;;1999.90;999.90;;;15.50;99.90;;;;;;5088493;28;20036;-70
2023/09/21 10:15:26;;;;;;;;;;;15.50;99.90;;;;;;5081110;28;20078;-83
2023/09/21 10:17:56;;;;;;;1999.90;999.90;;;15.50;99.90;;;;;;5080155;28;20306;-71
2023/09/21 10:20:34;;;;;;;1999.90;999.90;;;15.50;99.90;;;;;;5083091;28;20107;-70
2023/09/21 10:23:04;;;;;;;1999.90;999.90;;;15.60;99.90;;;;;;5080840;28;20466;-71
2023/09/21 10:25:37;;;;;;;1999.90;999.90;;;15.70;99.90;;;;;;5094830;28;20099;-70
2023/09/21 10:28:27;;;;;;;1999.90;999.90;;;15.80;99.90;;;;;;5091862;28;20068;-70
2023/09/21 10:31:17;;;;;;;1999.90;999.90;;;15.80;99.90;;;;;;5097020;28;20062;-69
2023/09/21 10:33:52;;;;;;;1999.90;999.90;;;15.80;99.90;;;;;;5077019;28;20036;-82
2023/09/21 10:36:21;;;;;;;1999.90;999.90;;;15.80;99.90;;;;;;5086436;28;20016;-70
2023/09/21 10:39:05;;;;;;;1999.90;999.90;;;15.80;99.90;;;;;;5092154;28;20055;-69
2023/09/21 10:41:35;;;;;;;1999.90;999.90;;;15.80;99.90;;;;;;5079962;28;20020;-69
2023/09/21 10:44:02;;;;;;;1999.90;999.90;;;15.80;99.90;;;;;;5086458;28;20042;-70
2023/09/21 10:46:37;;;;;;;1999.90;999.90;;;15.80;99.90;;;;;;5078288;28;20028;-70
2023/09/21 10:49:06;;;;;;;1999.90;999.90;;;15.80;99.90;;;;;;5081844;28;20053;-70
2023/09/21 10:51:35;;;;;;;1999.90;999.90;;;15.80;99.90;;;;;;5083331;28;20052;-70
2023/09/21 10:54:03;;;;;;;1999.90;999.90;;;15.90;99.90;;;;;;5084554;28;20331;-70
2023/09/21 10:56:29;;;;;;;1999.90;999.90;;;15.80;99.90;;;;;;5081441;28;20052;-70
2023/09/21 10:58:55;;;;;;;1999.90;999.90;;;15.70;99.90;;;;;;5074490;28;20029;-69
2023/09/21 11:01:22;;;;;;;1999.90;999.90;;;15.70;99.90;;;;;;5085168;28;20081;-69
2023/09/21 11:03:48;;;;;;;1999.90;999.90;;;15.70;99.90;;;;;;5088533;28;20941;-69
2023/09/21 11:06:17;;;;;;;1999.90;999.90;;;15.70;99.90;;;;;;5084466;28;20070;-69
2023/09/21 11:08:47;;;;;;;1999.90;999.90;;;15.60;99.90;;;;;;5074234;28;20111;-70
2023/09/21 11:11:13;;;;;;;1999.90;999.90;;;15.50;99.90;;;;;;5075201;28;20021;-70
2023/09/21 11:13:42;;;;;;;1999.90;999.90;;;15.40;99.90;;;;;;5081152;28;20376;-69
2023/09/21 11:16:14;;;;;;;1999.90;999.90;;;15.50;99.90;;;;;;5084863;28;20036;-70
2023/09/21 11:18:40;;;;;;;1999.90;999.90;;;15.50;99.90;;;;;;5070792;28;20048;-69
2023/09/21 11:21:08;;;;;;;1999.90;999.90;;;15.50;99.90;;;;;;5079904;28;20052;-69
2023/09/21 11:23:35;;;;;;;1999.90;999.90;;;15.50;99.90;;;;;;5072843;28;20020;-69
2023/09/21 11:26:02;;;;;;;1999.90;999.90;;;15.50;99.90;;;;;;5072821;28;20462;-70
2023/09/21 11:28:28;;;;;;;1999.90;999.90;;;15.40;99.90;;;;;;5072979;28;20116;-69
2023/09/21 11:30:56;;;;;;;1999.90;999.90;;;15.40;99.90;;;;;;5073481;28;20107;-69
2023/09/21 11:33:22;;;;;;;1999.90;999.90;;;15.40;99.90;;;;;;5080487;28;20026;-81
2023/09/21 11:35:48;;;;;;;1999.90;999.90;;;15.50;99.90;;;;;;5086402;28;20104;-69
2023/09/21 11:38:17;;;;;;;1999.90;999.90;;;15.50;99.90;;;;;;5089130;28;20103;-69
2023/09/21 11:40:43;;;;;;;1999.90;999.90;;;15.50;99.90;;;;;;5095894;28;20081;-69
2023/09/21 11:43:13;;;;;;;1999.90;999.90;;;15.50;99.90;;;;;;5096046;28;20027;-69
2023/09/21 11:45:40;;;;;;;1999.90;999.90;;;15.50;99.90;;;;;;5082717;28;20442;-69
2023/09/21 11:48:06;;;;;;;1999.90;999.90;;;15.40;99.90;;;;;;5082728;28;20405;-69
2023/09/21 11:50:35;;;;;;;1999.90;999.90;;;15.40;99.90;;;;;;5080124;28;20020;-87
2023/09/21 11:53:06;;;;;;;1999.90;999.90;;;15.50;99.90;;;;;;5082600;28;20415;-69
2023/09/21 11:55:33;;;;;;;1999.90;999.90;;;15.50;99.90;;;;;;5084927;28;20411;-69
2023/09/21 11:58:13;;;;;;;1999.90;999.90;;;15.50;99.90;;;;;;5096766;28;20016;-69
2023/09/21 12:00:45;;;;;;;1999.90;999.90;;;15.50;99.90;;;;;;5086906;28;20052;-69
2023/09/21 12:03:16;;;;;;;1999.90;999.90;;;15.50;99.90;;;;;;5076463;28;20477;-69
2023/09/21 12:05:43;;;;;;;1999.90;999.90;;;15.50;99.90;;;;;;5089540;28;20073;-69
2023/09/21 12:08:14;;;;;;;1999.90;999.90;;;15.50;99.90;;;;;;5096753;28;20318;-69